sensor_id;sensor_type;location;lat;lon;timestamp;P1;durP1;ratioP1;P2;durP2;ratioP2
30096;SDS011;16915;51.466;3.610;2023-04-01T00:01:57;22.08;;;4.13;;
30096;SDS011;16915;51.466;3.610;2023-04-01T00:04:23;15.27;;;3.03;;
30096;SDS011;16915;51.466;3.610;2023-04-01T00:06:48;22.40;;;3.15;;
30096;SDS011;16915;51.466;3.610;2023-04-01T00:09:14;20.67;;;3.47;;
30096;SDS011;16915;51.466;3.610;2023-04-01T00:11:40;15.73;;;3.20;;
30096;SDS011;16915;51.466;3.610;2023-04-01T00:14:06;20.60;;;3.80;;
30096;SDS011;16915;51.466;3.610;2023-04-01T00:16:32;24.25;;;3.75;;
30096;SDS011;16915;51.466;3.610;2023-04-01T00:18:58;23.48;;;3.53;;
30096;SDS011;16915;51.466;3.610;2023-04-01T00:21:25;21.45;;;3.60;;
30096;SDS011;16915;51.466;3.610;2023-04-01T00:23:51;14.45;;;3.72;;
30096;SDS011;16915;51.466;3.610;2023-04-01T00:26:16;16.63;;;3.95;;
30096;SDS011;16915;51.466;3.610;2023-04-01T00:28:45;25.13;;;3.58;;
30096;SDS011;16915;51.466;3.610;2023-04-01T00:31:11;20.58;;;4.78;;
30096;SDS011;16915;51.466;3.610;2023-04-01T00:33:38;18.25;;;3.70;;
30096;SDS011;16915;51.466;3.610;2023-04-01T00:36:09;18.92;;;4.07;;
30096;SDS011;16915;51.466;3.610;2023-04-01T00:38:36;18.10;;;3.65;;
30096;SDS011;16915;51.466;3.610;2023-04-01T00:41:03;19.48;;;3.45;;
30096;SDS011;16915;51.466;3.610;2023-04-01T00:43:30;17.45;;;3.85;;
30096;SDS011;16915;51.466;3.610;2023-04-01T00:45:55;16.20;;;4.63;;
30096;SDS011;16915;51.466;3.610;2023-04-01T00:48:31;19.13;;;3.70;;
30096;SDS011;16915;51.466;3.610;2023-04-01T00:51:07;16.55;;;4.25;;
30096;SDS011;16915;51.466;3.610;2023-04-01T00:53:41;13.73;;;2.60;;
30096;SDS011;16915;51.466;3.610;2023-04-01T00:56:12;11.95;;;3.20;;
30096;SDS011;16915;51.466;3.610;2023-04-01T00:59:04;12.75;;;2.80;;
30096;SDS011;16915;51.466;3.610;2023-04-01T01:01:35;10.50;;;3.35;;
30096;SDS011;16915;51.466;3.610;2023-04-01T01:04:01;15.00;;;2.70;;
30096;SDS011;16915;51.466;3.610;2023-04-01T01:23:29;5.68;;;1.90;;
30096;SDS011;16915;51.466;3.610;2023-04-01T01:26:19;4.90;;;2.33;;
30096;SDS011;16915;51.466;3.610;2023-04-01T01:29:25;5.93;;;1.93;;
30096;SDS011;16915;51.466;3.610;2023-04-01T01:32:38;8.57;;;2.50;;
30096;SDS011;16915;51.466;3.610;2023-04-01T01:35:20;3.03;;;1.20;;
30096;SDS011;16915;51.466;3.610;2023-04-01T01:37:54;7.38;;;2.10;;
30096;SDS011;16915;51.466;3.610;2023-04-01T01:40:21;7.57;;;1.55;;
30096;SDS011;16915;51.466;3.610;2023-04-01T01:42:50;14.07;;;2.33;;
30096;SDS011;16915;51.466;3.610;2023-04-01T01:45:20;7.10;;;2.08;;
30096;SDS011;16915;51.466;3.610;2023-04-01T01:47:48;6.38;;;3.17;;
30096;SDS011;16915;51.466;3.610;2023-04-01T01:50:16;4.30;;;1.65;;
30096;SDS011;16915;51.466;3.610;2023-04-01T01:52:42;3.47;;;1.30;;
30096;SDS011;16915;51.466;3.610;2023-04-01T01:55:30;3.92;;;1.52;;
30096;SDS011;16915;51.466;3.610;2023-04-01T01:57:58;4.32;;;1.20;;
30096;SDS011;16915;51.466;3.610;2023-04-01T02:00:32;6.32;;;1.90;;
30096;SDS011;16915;51.466;3.610;2023-04-01T02:02:58;8.40;;;2.55;;
30096;SDS011;16915;51.466;3.610;2023-04-01T02:05:26;9.20;;;2.33;;
30096;SDS011;16915;51.466;3.610;2023-04-01T02:08:08;4.80;;;1.92;;
30096;SDS011;16915;51.466;3.610;2023-04-01T02:10:39;5.68;;;2.20;;
30096;SDS011;16915;51.466;3.610;2023-04-01T02:13:13;6.05;;;2.30;;
30096;SDS011;16915;51.466;3.610;2023-04-01T02:15:47;6.57;;;2.28;;
30096;SDS011;16915;51.466;3.610;2023-04-01T02:18:16;4.38;;;2.55;;
30096;SDS011;16915;51.466;3.610;2023-04-01T02:20:44;7.78;;;2.60;;
30096;SDS011;16915;51.466;3.610;2023-04-01T02:23:10;6.53;;;2.67;;
30096;SDS011;16915;51.466;3.610;2023-04-01T02:25:37;11.30;;;2.40;;
30096;SDS011;16915;51.466;3.610;2023-04-01T02:28:04;7.43;;;2.33;;
30096;SDS011;16915;51.466;3.610;2023-04-01T02:30:33;7.68;;;2.58;;
30096;SDS011;16915;51.466;3.610;2023-04-01T02:33:01;7.22;;;2.72;;
30096;SDS011;16915;51.466;3.610;2023-04-01T02:35:28;4.28;;;1.73;;
30096;SDS011;16915;51.466;3.610;2023-04-01T02:37:54;7.55;;;2.13;;
30096;SDS011;16915;51.466;3.610;2023-04-01T02:40:20;9.02;;;3.22;;
30096;SDS011;16915;51.466;3.610;2023-04-01T02:42:47;12.23;;;2.45;;
30096;SDS011;16915;51.466;3.610;2023-04-01T02:45:13;6.28;;;2.08;;
30096;SDS011;16915;51.466;3.610;2023-04-01T02:47:39;4.97;;;1.65;;
30096;SDS011;16915;51.466;3.610;2023-04-01T02:50:05;5.40;;;1.88;;
30096;SDS011;16915;51.466;3.610;2023-04-01T02:52:31;5.72;;;2.63;;
30096;SDS011;16915;51.466;3.610;2023-04-01T02:54:57;11.20;;;3.00;;
30096;SDS011;16915;51.466;3.610;2023-04-01T02:57:23;9.02;;;3.20;;
30096;SDS011;16915;51.466;3.610;2023-04-01T02:59:50;12.13;;;3.40;;
30096;SDS011;16915;51.466;3.610;2023-04-01T03:02:16;8.60;;;2.45;;
30096;SDS011;16915;51.466;3.610;2023-04-01T03:04:42;10.32;;;3.38;;
30096;SDS011;16915;51.466;3.610;2023-04-01T03:07:08;11.02;;;3.15;;
30096;SDS011;16915;51.466;3.610;2023-04-01T03:09:37;12.10;;;3.53;;
30096;SDS011;16915;51.466;3.610;2023-04-01T03:12:03;10.45;;;2.88;;
30096;SDS011;16915;51.466;3.610;2023-04-01T03:14:29;8.05;;;3.20;;
30096;SDS011;16915;51.466;3.610;2023-04-01T03:16:54;4.38;;;2.67;;
30096;SDS011;16915;51.466;3.610;2023-04-01T03:19:20;12.00;;;2.97;;
30096;SDS011;16915;51.466;3.610;2023-04-01T03:21:45;11.45;;;2.92;;
30096;SDS011;16915;51.466;3.610;2023-04-01T03:24:11;6.07;;;2.88;;
30096;SDS011;16915;51.466;3.610;2023-04-01T03:26:37;12.90;;;3.75;;
30096;SDS011;16915;51.466;3.610;2023-04-01T03:29:02;11.32;;;3.10;;
30096;SDS011;16915;51.466;3.610;2023-04-01T03:31:28;6.60;;;2.65;;
30096;SDS011;16915;51.466;3.610;2023-04-01T03:33:53;5.72;;;1.63;;
30096;SDS011;16915;51.466;3.610;2023-04-01T03:36:19;9.10;;;2.30;;
30096;SDS011;16915;51.466;3.610;2023-04-01T03:38:44;8.57;;;2.03;;
30096;SDS011;16915;51.466;3.610;2023-04-01T03:41:14;9.65;;;2.25;;
30096;SDS011;16915;51.466;3.610;2023-04-01T03:43:41;8.05;;;2.67;;
30096;SDS011;16915;51.466;3.610;2023-04-01T03:46:07;11.77;;;3.38;;
30096;SDS011;16915;51.466;3.610;2023-04-01T03:48:33;5.60;;;2.28;;
30096;SDS011;16915;51.466;3.610;2023-04-01T03:50:58;5.28;;;1.98;;
30096;SDS011;16915;51.466;3.610;2023-04-01T03:53:24;6.97;;;1.75;;
30096;SDS011;16915;51.466;3.610;2023-04-01T03:55:50;4.63;;;1.33;;
30096;SDS011;16915;51.466;3.610;2023-04-01T03:58:18;2.75;;;0.98;;
30096;SDS011;16915;51.466;3.610;2023-04-01T04:00:44;5.80;;;1.55;;
30096;SDS011;16915;51.466;3.610;2023-04-01T04:03:10;3.70;;;1.17;;
30096;SDS011;16915;51.466;3.610;2023-04-01T04:05:35;5.72;;;1.50;;
30096;SDS011;16915;51.466;3.610;2023-04-01T04:08:01;6.95;;;1.15;;
30096;SDS011;16915;51.466;3.610;2023-04-01T04:10:27;4.55;;;0.93;;
30096;SDS011;16915;51.466;3.610;2023-04-01T04:12:54;4.35;;;0.82;;
30096;SDS011;16915;51.466;3.610;2023-04-01T04:15:19;3.90;;;0.85;;
30096;SDS011;16915;51.466;3.610;2023-04-01T04:17:45;7.28;;;0.80;;
30096;SDS011;16915;51.466;3.610;2023-04-01T04:20:11;1.55;;;0.75;;
30096;SDS011;16915;51.466;3.610;2023-04-01T04:22:36;2.45;;;0.60;;
30096;SDS011;16915;51.466;3.610;2023-04-01T04:25:02;1.77;;;0.60;;
30096;SDS011;16915;51.466;3.610;2023-04-01T04:27:28;3.17;;;0.57;;
30096;SDS011;16915;51.466;3.610;2023-04-01T04:29:53;4.50;;;0.93;;
30096;SDS011;16915;51.466;3.610;2023-04-01T04:32:19;0.82;;;0.40;;
30096;SDS011;16915;51.466;3.610;2023-04-01T04:34:45;2.13;;;0.70;;
30096;SDS011;16915;51.466;3.610;2023-04-01T04:37:10;1.08;;;0.50;;
30096;SDS011;16915;51.466;3.610;2023-04-01T04:39:36;1.77;;;0.30;;
30096;SDS011;16915;51.466;3.610;2023-04-01T04:42:01;4.28;;;0.60;;
30096;SDS011;16915;51.466;3.610;2023-04-01T04:44:27;2.47;;;0.38;;
30096;SDS011;16915;51.466;3.610;2023-04-01T04:46:52;0.93;;;0.30;;
30096;SDS011;16915;51.466;3.610;2023-04-01T04:49:18;3.60;;;0.30;;
30096;SDS011;16915;51.466;3.610;2023-04-01T04:51:44;3.75;;;0.32;;
30096;SDS011;16915;51.466;3.610;2023-04-01T04:54:10;2.55;;;0.50;;
30096;SDS011;16915;51.466;3.610;2023-04-01T04:56:36;3.80;;;0.30;;
30096;SDS011;16915;51.466;3.610;2023-04-01T04:59:01;3.97;;;0.40;;
30096;SDS011;16915;51.466;3.610;2023-04-01T05:01:27;1.40;;;0.32;;
30096;SDS011;16915;51.466;3.610;2023-04-01T05:03:53;3.13;;;0.50;;
30096;SDS011;16915;51.466;3.610;2023-04-01T05:06:19;2.38;;;0.50;;
30096;SDS011;16915;51.466;3.610;2023-04-01T05:08:45;4.05;;;0.47;;
30096;SDS011;16915;51.466;3.610;2023-04-01T05:11:15;3.30;;;0.50;;
30096;SDS011;16915;51.466;3.610;2023-04-01T05:13:43;3.90;;;0.60;;
30096;SDS011;16915;51.466;3.610;2023-04-01T05:16:10;1.38;;;0.50;;
30096;SDS011;16915;51.466;3.610;2023-04-01T05:18:36;1.85;;;0.57;;
30096;SDS011;16915;51.466;3.610;2023-04-01T05:21:02;7.32;;;1.08;;
30096;SDS011;16915;51.466;3.610;2023-04-01T05:23:27;3.22;;;0.75;;
30096;SDS011;16915;51.466;3.610;2023-04-01T05:25:53;4.63;;;0.95;;
30096;SDS011;16915;51.466;3.610;2023-04-01T05:28:19;4.57;;;1.13;;
30096;SDS011;16915;51.466;3.610;2023-04-01T05:30:45;1.00;;;0.80;;
30096;SDS011;16915;51.466;3.610;2023-04-01T05:33:11;6.10;;;1.35;;
30096;SDS011;16915;51.466;3.610;2023-04-01T05:35:38;3.65;;;1.40;;
30096;SDS011;16915;51.466;3.610;2023-04-01T05:38:05;2.83;;;1.27;;
30096;SDS011;16915;51.466;3.610;2023-04-01T05:40:31;5.72;;;1.60;;
30096;SDS011;16915;51.466;3.610;2023-04-01T05:42:57;1.73;;;1.27;;
30096;SDS011;16915;51.466;3.610;2023-04-01T05:45:24;6.38;;;1.63;;
30096;SDS011;16915;51.466;3.610;2023-04-01T05:47:49;6.00;;;1.90;;
30096;SDS011;16915;51.466;3.610;2023-04-01T05:50:15;3.17;;;2.05;;
30096;SDS011;16915;51.466;3.610;2023-04-01T05:52:41;5.43;;;1.92;;
30096;SDS011;16915;51.466;3.610;2023-04-01T05:55:07;6.97;;;2.00;;
30096;SDS011;16915;51.466;3.610;2023-04-01T05:57:33;8.35;;;2.28;;
30096;SDS011;16915;51.466;3.610;2023-04-01T05:59:58;2.72;;;2.15;;
30096;SDS011;16915;51.466;3.610;2023-04-01T06:02:24;5.60;;;1.70;;
30096;SDS011;16915;51.466;3.610;2023-04-01T06:04:49;5.15;;;2.58;;
30096;SDS011;16915;51.466;3.610;2023-04-01T06:07:27;4.97;;;2.25;;
30096;SDS011;16915;51.466;3.610;2023-04-01T06:09:53;6.18;;;2.20;;
30096;SDS011;16915;51.466;3.610;2023-04-01T06:17:59;6.50;;;1.70;;
30096;SDS011;16915;51.466;3.610;2023-04-01T06:20:39;8.95;;;2.05;;
30096;SDS011;16915;51.466;3.610;2023-04-01T06:46:45;7.47;;;2.00;;
30096;SDS011;16915;51.466;3.610;2023-04-01T06:49:21;7.38;;;1.60;;
30096;SDS011;16915;51.466;3.610;2023-04-01T06:54:34;8.55;;;1.77;;
30096;SDS011;16915;51.466;3.610;2023-04-01T06:57:05;6.38;;;1.65;;
30096;SDS011;16915;51.466;3.610;2023-04-01T06:59:51;2.00;;;1.35;;
30096;SDS011;16915;51.466;3.610;2023-04-01T07:02:24;2.92;;;1.40;;
30096;SDS011;16915;51.466;3.610;2023-04-01T07:04:57;5.90;;;1.00;;
30096;SDS011;16915;51.466;3.610;2023-04-01T07:07:26;5.50;;;1.45;;
30096;SDS011;16915;51.466;3.610;2023-04-01T07:09:57;4.18;;;1.23;;
30096;SDS011;16915;51.466;3.610;2023-04-01T07:15:00;3.85;;;1.25;;
30096;SDS011;16915;51.466;3.610;2023-04-01T07:17:31;5.55;;;1.92;;
30096;SDS011;16915;51.466;3.610;2023-04-01T07:20:03;3.78;;;1.30;;
30096;SDS011;16915;51.466;3.610;2023-04-01T07:22:46;4.47;;;1.38;;
30096;SDS011;16915;51.466;3.610;2023-04-01T07:25:21;2.75;;;0.88;;
30096;SDS011;16915;51.466;3.610;2023-04-01T07:27:56;8.15;;;0.73;;
30096;SDS011;16915;51.466;3.610;2023-04-01T07:30:27;2.95;;;0.80;;
30096;SDS011;16915;51.466;3.610;2023-04-01T07:33:04;4.90;;;0.65;;
30096;SDS011;16915;51.466;3.610;2023-04-01T07:35:47;4.80;;;0.75;;
30096;SDS011;16915;51.466;3.610;2023-04-01T07:38:33;2.80;;;0.80;;
30096;SDS011;16915;51.466;3.610;2023-04-01T07:41:23;2.53;;;0.93;;
30096;SDS011;16915;51.466;3.610;2023-04-01T08:07:25;4.03;;;1.00;;
30096;SDS011;16915;51.466;3.610;2023-04-01T08:09:57;2.95;;;1.00;;
30096;SDS011;16915;51.466;3.610;2023-04-01T08:15:45;4.60;;;1.08;;
30096;SDS011;16915;51.466;3.610;2023-04-01T08:21:00;6.47;;;1.20;;
30096;SDS011;16915;51.466;3.610;2023-04-01T08:23:30;3.83;;;1.35;;
30096;SDS011;16915;51.466;3.610;2023-04-01T08:31:03;5.75;;;1.60;;
30096;SDS011;16915;51.466;3.610;2023-04-01T08:33:36;2.67;;;1.52;;
30096;SDS011;16915;51.466;3.610;2023-04-01T08:38:46;2.85;;;0.90;;
30096;SDS011;16915;51.466;3.610;2023-04-01T08:44:47;2.97;;;1.00;;
30096;SDS011;16915;51.466;3.610;2023-04-01T08:50:19;3.38;;;0.90;;
30096;SDS011;16915;51.466;3.610;2023-04-01T08:55:50;4.10;;;1.00;;
30096;SDS011;16915;51.466;3.610;2023-04-01T08:58:47;7.00;;;1.13;;
30096;SDS011;16915;51.466;3.610;2023-04-01T09:01:58;2.40;;;0.90;;
30096;SDS011;16915;51.466;3.610;2023-04-01T09:07:54;3.22;;;1.63;;
30096;SDS011;16915;51.466;3.610;2023-04-01T09:10:24;8.13;;;1.20;;
30096;SDS011;16915;51.466;3.610;2023-04-01T09:13:13;6.25;;;1.30;;
30096;SDS011;16915;51.466;3.610;2023-04-01T09:27:27;1.85;;;0.70;;
30096;SDS011;16915;51.466;3.610;2023-04-01T09:30:00;7.10;;;0.85;;
30096;SDS011;16915;51.466;3.610;2023-04-01T09:35:15;4.80;;;1.10;;
30096;SDS011;16915;51.466;3.610;2023-04-01T09:40:43;3.03;;;0.65;;
30096;SDS011;16915;51.466;3.610;2023-04-01T10:05:40;2.13;;;0.35;;
30096;SDS011;16915;51.466;3.610;2023-04-01T10:14:07;1.17;;;0.40;;
30096;SDS011;16915;51.466;3.610;2023-04-01T10:30:33;0.63;;;0.40;;
30096;SDS011;16915;51.466;3.610;2023-04-01T10:42:51;1.73;;;0.60;;
30096;SDS011;16915;51.466;3.610;2023-04-01T10:59:50;1.52;;;0.47;;
30096;SDS011;16915;51.466;3.610;2023-04-01T11:11:23;2.50;;;0.47;;
30096;SDS011;16915;51.466;3.610;2023-04-01T11:14:46;1.23;;;0.40;;
30096;SDS011;16915;51.466;3.610;2023-04-01T11:22:42;1.67;;;0.47;;
30096;SDS011;16915;51.466;3.610;2023-04-01T11:39:20;7.65;;;0.75;;
30096;SDS011;16915;51.466;3.610;2023-04-01T11:44:30;2.65;;;0.50;;
30096;SDS011;16915;51.466;3.610;2023-04-01T11:49:46;2.80;;;0.77;;
30096;SDS011;16915;51.466;3.610;2023-04-01T11:55:05;2.28;;;0.40;;
30096;SDS011;16915;51.466;3.610;2023-04-01T11:58:08;3.00;;;0.60;;
30096;SDS011;16915;51.466;3.610;2023-04-01T12:08:59;4.20;;;0.45;;
30096;SDS011;16915;51.466;3.610;2023-04-01T12:11:34;5.28;;;0.80;;
30096;SDS011;16915;51.466;3.610;2023-04-01T12:17:23;2.92;;;0.77;;
30096;SDS011;16915;51.466;3.610;2023-04-01T12:30:32;3.67;;;0.82;;
30096;SDS011;16915;51.466;3.610;2023-04-01T12:41:08;1.08;;;0.70;;
30096;SDS011;16915;51.466;3.610;2023-04-01T12:43:47;1.95;;;0.50;;
30096;SDS011;16915;51.466;3.610;2023-04-01T12:54:58;3.35;;;0.90;;
30096;SDS011;16915;51.466;3.610;2023-04-01T13:00:56;3.58;;;1.00;;
30096;SDS011;16915;51.466;3.610;2023-04-01T13:06:38;6.60;;;1.15;;
30096;SDS011;16915;51.466;3.610;2023-04-01T13:29:14;3.58;;;0.65;;
30096;SDS011;16915;51.466;3.610;2023-04-01T13:42:44;1.65;;;0.90;;
30096;SDS011;16915;51.466;3.610;2023-04-01T13:45:21;2.88;;;0.60;;
30096;SDS011;16915;51.466;3.610;2023-04-01T13:53:36;3.47;;;0.60;;
30096;SDS011;16915;51.466;3.610;2023-04-01T13:58:55;2.83;;;0.47;;
30096;SDS011;16915;51.466;3.610;2023-04-01T14:04:47;4.60;;;0.60;;
30096;SDS011;16915;51.466;3.610;2023-04-01T14:07:41;3.17;;;0.50;;
30096;SDS011;16915;51.466;3.610;2023-04-01T14:13:25;1.35;;;0.40;;
30096;SDS011;16915;51.466;3.610;2023-04-01T14:16:23;4.00;;;0.57;;
30096;SDS011;16915;51.466;3.610;2023-04-01T14:19:19;4.47;;;0.60;;
30096;SDS011;16915;51.466;3.610;2023-04-01T14:22:37;6.43;;;1.38;;
30096;SDS011;16915;51.466;3.610;2023-04-01T14:27:50;6.32;;;1.00;;
30096;SDS011;16915;51.466;3.610;2023-04-01T14:39:33;2.90;;;0.70;;
30096;SDS011;16915;51.466;3.610;2023-04-01T14:44:45;5.32;;;1.25;;
30096;SDS011;16915;51.466;3.610;2023-04-01T14:50:09;5.95;;;1.23;;
30096;SDS011;16915;51.466;3.610;2023-04-01T14:53:31;7.25;;;1.30;;
30096;SDS011;16915;51.466;3.610;2023-04-01T14:55:33;2.88;;;1.13;;
30096;SDS011;16915;51.466;3.610;2023-04-01T14:58:10;1.73;;;0.98;;
30096;SDS011;16915;51.466;3.610;2023-04-01T15:25:39;13.40;;;4.78;;
30096;SDS011;16915;51.466;3.610;2023-04-01T15:28:33;17.70;;;5.32;;
30096;SDS011;16915;51.466;3.610;2023-04-01T15:31:10;14.27;;;5.22;;
30096;SDS011;16915;51.466;3.610;2023-04-01T15:33:54;14.95;;;5.28;;
30096;SDS011;16915;51.466;3.610;2023-04-01T15:37:02;17.67;;;4.97;;
30096;SDS011;16915;51.466;3.610;2023-04-01T15:48:13;6.78;;;1.67;;
30096;SDS011;16915;51.466;3.610;2023-04-01T15:51:19;3.63;;;1.50;;
30096;SDS011;16915;51.466;3.610;2023-04-01T15:53:53;4.95;;;1.40;;
30096;SDS011;16915;51.466;3.610;2023-04-01T16:04:54;6.15;;;2.67;;
30096;SDS011;16915;51.466;3.610;2023-04-01T16:07:36;10.55;;;3.17;;
30096;SDS011;16915;51.466;3.610;2023-04-01T16:10:23;10.27;;;3.50;;
30096;SDS011;16915;51.466;3.610;2023-04-01T16:18:47;7.57;;;2.90;;
30096;SDS011;16915;51.466;3.610;2023-04-01T16:24:30;15.63;;;3.70;;
30096;SDS011;16915;51.466;3.610;2023-04-01T16:27:02;7.88;;;3.85;;
30096;SDS011;16915;51.466;3.610;2023-04-01T16:29:38;14.40;;;3.58;;
30096;SDS011;16915;51.466;3.610;2023-04-01T16:35:16;9.38;;;3.00;;
30096;SDS011;16915;51.466;3.610;2023-04-01T16:38:03;9.38;;;3.70;;
30096;SDS011;16915;51.466;3.610;2023-04-01T16:40:42;7.97;;;3.35;;
30096;SDS011;16915;51.466;3.610;2023-04-01T16:43:23;9.63;;;3.15;;
30096;SDS011;16915;51.466;3.610;2023-04-01T16:51:33;9.25;;;3.60;;
30096;SDS011;16915;51.466;3.610;2023-04-01T16:56:44;13.82;;;4.20;;
30096;SDS011;16915;51.466;3.610;2023-04-01T16:59:16;8.60;;;3.90;;
30096;SDS011;16915;51.466;3.610;2023-04-01T17:01:44;8.70;;;3.10;;
30096;SDS011;16915;51.466;3.610;2023-04-01T17:06:51;15.05;;;4.03;;
30096;SDS011;16915;51.466;3.610;2023-04-01T17:09:41;15.30;;;4.13;;
30096;SDS011;16915;51.466;3.610;2023-04-01T17:15:21;12.32;;;3.65;;
30096;SDS011;16915;51.466;3.610;2023-04-01T17:20:43;13.40;;;4.60;;
30096;SDS011;16915;51.466;3.610;2023-04-01T17:28:48;18.45;;;4.60;;
30096;SDS011;16915;51.466;3.610;2023-04-01T17:45:10;12.07;;;3.40;;
30096;SDS011;16915;51.466;3.610;2023-04-01T17:47:54;17.23;;;3.97;;
30096;SDS011;16915;51.466;3.610;2023-04-01T17:50:33;16.08;;;3.25;;
30096;SDS011;16915;51.466;3.610;2023-04-01T17:59:36;19.75;;;3.35;;
30096;SDS011;16915;51.466;3.610;2023-04-01T18:13:54;17.27;;;3.17;;
30096;SDS011;16915;51.466;3.610;2023-04-01T18:25:15;20.20;;;3.55;;
30096;SDS011;16915;51.466;3.610;2023-04-01T18:27:51;20.42;;;3.72;;
30096;SDS011;16915;51.466;3.610;2023-04-01T18:30:22;20.13;;;2.88;;
30096;SDS011;16915;51.466;3.610;2023-04-01T18:33:41;27.55;;;5.03;;
30096;SDS011;16915;51.466;3.610;2023-04-01T18:35:52;20.58;;;3.60;;
30096;SDS011;16915;51.466;3.610;2023-04-01T18:38:28;23.98;;;4.25;;
30096;SDS011;16915;51.466;3.610;2023-04-01T18:43:48;12.70;;;2.80;;
30096;SDS011;16915;51.466;3.610;2023-04-01T18:49:21;13.45;;;2.95;;
30096;SDS011;16915;51.466;3.610;2023-04-01T18:52:10;18.63;;;4.50;;
30096;SDS011;16915;51.466;3.610;2023-04-01T18:54:49;14.18;;;2.72;;
30096;SDS011;16915;51.466;3.610;2023-04-01T19:00:41;17.15;;;3.30;;
30096;SDS011;16915;51.466;3.610;2023-04-01T19:03:23;18.58;;;3.40;;
30096;SDS011;16915;51.466;3.610;2023-04-01T19:06:17;18.50;;;3.70;;
30096;SDS011;16915;51.466;3.610;2023-04-01T19:08:51;19.95;;;4.60;;
30096;SDS011;16915;51.466;3.610;2023-04-01T19:11:23;22.38;;;4.63;;
30096;SDS011;16915;51.466;3.610;2023-04-01T19:14:16;25.48;;;4.80;;
30096;SDS011;16915;51.466;3.610;2023-04-01T19:29:47;28.25;;;6.00;;
30096;SDS011;16915;51.466;3.610;2023-04-01T19:32:34;25.52;;;5.45;;
30096;SDS011;16915;51.466;3.610;2023-04-01T19:35:32;28.00;;;6.03;;
30096;SDS011;16915;51.466;3.610;2023-04-01T19:44:24;23.48;;;5.57;;
30096;SDS011;16915;51.466;3.610;2023-04-01T19:47:00;32.58;;;7.65;;
30096;SDS011;16915;51.466;3.610;2023-04-01T19:52:22;29.40;;;7.05;;
30096;SDS011;16915;51.466;3.610;2023-04-01T20:00:22;35.60;;;7.25;;
30096;SDS011;16915;51.466;3.610;2023-04-01T20:02:59;38.40;;;7.72;;
30096;SDS011;16915;51.466;3.610;2023-04-01T20:05:48;28.40;;;7.55;;
30096;SDS011;16915;51.466;3.610;2023-04-01T20:16:16;27.10;;;6.85;;
30096;SDS011;16915;51.466;3.610;2023-04-01T20:18:54;35.67;;;8.77;;
30096;SDS011;16915;51.466;3.610;2023-04-01T20:26:39;28.83;;;7.00;;
30096;SDS011;16915;51.466;3.610;2023-04-01T20:31:43;24.40;;;7.30;;
30096;SDS011;16915;51.466;3.610;2023-04-01T20:34:19;28.30;;;6.97;;
30096;SDS011;16915;51.466;3.610;2023-04-01T20:39:48;20.33;;;7.03;;
30096;SDS011;16915;51.466;3.610;2023-04-01T20:53:34;31.20;;;7.13;;
30096;SDS011;16915;51.466;3.610;2023-04-01T20:59:12;23.10;;;6.75;;
30096;SDS011;16915;51.466;3.610;2023-04-01T21:02:00;31.75;;;6.82;;
30096;SDS011;16915;51.466;3.610;2023-04-01T21:10:20;29.42;;;6.85;;
30096;SDS011;16915;51.466;3.610;2023-04-01T21:13:04;22.63;;;6.55;;
30096;SDS011;16915;51.466;3.610;2023-04-01T21:20:48;30.50;;;7.07;;
30096;SDS011;16915;51.466;3.610;2023-04-01T21:23:55;24.05;;;6.75;;
30096;SDS011;16915;51.466;3.610;2023-04-01T21:26:32;25.25;;;6.40;;
30096;SDS011;16915;51.466;3.610;2023-04-01T21:29:25;22.38;;;6.85;;
30096;SDS011;16915;51.466;3.610;2023-04-01T21:58:52;32.50;;;6.82;;
30096;SDS011;16915;51.466;3.610;2023-04-01T22:01:42;30.20;;;7.85;;
30096;SDS011;16915;51.466;3.610;2023-04-01T22:12:35;28.73;;;7.90;;
30096;SDS011;16915;51.466;3.610;2023-04-01T22:18:32;24.25;;;8.20;;
30096;SDS011;16915;51.466;3.610;2023-04-01T22:23:46;27.80;;;9.05;;
30096;SDS011;16915;51.466;3.610;2023-04-01T22:34:30;23.45;;;9.68;;
30096;SDS011;16915;51.466;3.610;2023-04-01T22:37:29;21.85;;;8.82;;
30096;SDS011;16915;51.466;3.610;2023-04-01T22:48:49;29.33;;;10.30;;
30096;SDS011;16915;51.466;3.610;2023-04-01T22:54:04;16.95;;;9.77;;
30096;SDS011;16915;51.466;3.610;2023-04-01T23:02:10;26.58;;;13.45;;
30096;SDS011;16915;51.466;3.610;2023-04-01T23:04:47;22.17;;;13.73;;
30096;SDS011;16915;51.466;3.610;2023-04-01T23:10:17;26.83;;;15.80;;
30096;SDS011;16915;51.466;3.610;2023-04-01T23:12:53;30.02;;;14.77;;
30096;SDS011;16915;51.466;3.610;2023-04-01T23:15:23;23.20;;;13.30;;
30096;SDS011;16915;51.466;3.610;2023-04-01T23:20:59;26.25;;;14.27;;
30096;SDS011;16915;51.466;3.610;2023-04-01T23:26:20;29.70;;;13.95;;
30096;SDS011;16915;51.466;3.610;2023-04-01T23:28:59;25.40;;;17.35;;
30096;SDS011;16915;51.466;3.610;2023-04-01T23:31:30;31.10;;;17.58;;
30096;SDS011;16915;51.466;3.610;2023-04-01T23:33:59;31.42;;;17.58;;
30096;SDS011;16915;51.466;3.610;2023-04-01T23:36:28;33.05;;;16.75;;
30096;SDS011;16915;51.466;3.610;2023-04-01T23:38:55;28.20;;;16.30;;
30096;SDS011;16915;51.466;3.610;2023-04-01T23:41:27;37.90;;;20.73;;
30096;SDS011;16915;51.466;3.610;2023-04-01T23:43:57;33.05;;;17.52;;
30096;SDS011;16915;51.466;3.610;2023-04-01T23:46:25;31.77;;;18.38;;
30096;SDS011;16915;51.466;3.610;2023-04-01T23:48:53;27.50;;;17.48;;
30096;SDS011;16915;51.466;3.610;2023-04-01T23:54:25;30.33;;;18.00;;
30096;SDS011;16915;51.466;3.610;2023-04-01T23:56:56;29.38;;;17.35;;
30096;SDS011;16915;51.466;3.610;2023-04-01T23:59:23;22.35;;;14.70;;
